KBNL Airport (Barnwell Rgnl) Information

FAA: BNL - ICAO: KBNL

KBNL Airport Location

State South Carolina
County Barnwell
City Barnwell
KBNL Airport is 1 miles northwest of Barnwell, SC.
Latitude 33-15-27.6039N
Longitude 081-23-17.5882W
Elevation 246ft

KBNL Airport METARs

METAR KBNL 180655Z AUTO 00000KT 10SM FEW047 SCT055 08/06 A3016 RMK AO2
Altimeter 30.16"
Temperature 8.0°C (46.4°F)
Wind 0° at 0KT
Clouds few at 4,700ft scattered at 5,500ft
Visibility 10.0mi
Time observed: 2021-10-18T06:55:00Z

KBNL Airport Details

Status Operational
Activation May 1943
Ownership Public
Usage Public
Chart CHARLOTTE
ATC on-site No
Beacon schedule sunset-sunrise
Beacon color clear green

KBNL Airport Contacts

Owner BARNWELL COUNTY
Owner address COUNTY COURTHOUSE, BARNWELL, SC 29812
Owner phone 803-541-1000
Manager BRIAN WILLIS
Manager address 455 TOLL GATE ROAD, WARWICK, RI 02886
Manager phone 401-737-7000

KBNL Airport (Barnwell Rgnl) Radio Frequencies

KBNL (Airport) Radio Frequencies

UNICOM 122.8
Common traffic advisory frequency (CTAF) 122.8